Time;durP1;ratioP1;P1;durP2;ratioP2;P2;SDS_P1;SDS_P2;PMS_P1;PMS_P2;Temp;Humidity;BMP_temperature;BMP_pressure;BME280_temperature;BME280_humidity;BME280_pressure;Samples;Min_cycle;Max_cycle;Signal;HPM_P1;HPM_P2
2022/03/15 00:01:47;;;;;;;6.57;3.25;;;7.20;86.60;;;;;;5021028;28;20417;-79
2022/03/15 00:04:14;;;;;;;8.50;4.20;;;7.20;86.60;;;;;;5021018;28;20052;-80
2022/03/15 00:06:42;;;;;;;7.13;3.55;;;7.20;86.70;;;;;;5036936;28;20056;-79
2022/03/15 00:09:11;;;;;;;6.70;3.80;;;7.20;86.70;;;;;;5020949;28;20044;-79
2022/03/15 00:11:40;;;;;;;7.45;3.92;;;7.20;86.70;;;;;;5036518;28;20148;-79
2022/03/15 00:14:14;;;;;;;8.63;3.42;;;7.10;86.70;;;;;;5036380;28;20064;-79
2022/03/15 00:16:42;;;;;;;5.05;2.88;;;7.10;86.70;;;;;;5053759;28;20575;-80
2022/03/15 00:19:11;;;;;;;7.53;3.78;;;7.10;86.80;;;;;;5037349;28;20072;-78
2022/03/15 00:21:38;;;;;;;5.78;2.75;;;7.10;86.80;;;;;;5052937;28;20074;-78
2022/03/15 00:24:06;;;;;;;6.28;3.55;;;7.10;86.90;;;;;;5039857;28;20078;-79
2022/03/15 00:26:35;;;;;;;6.65;2.88;;;7.00;86.90;;;;;;5057126;28;20044;-79
2022/03/15 00:29:10;;;;;;;6.05;3.42;;;7.00;86.90;;;;;;5058567;28;20044;-79
2022/03/15 00:31:46;;;;;;;7.20;3.05;;;7.00;86.90;;;;;;5040246;28;20075;-80
2022/03/15 00:34:16;;;;;;;7.05;3.25;;;7.00;86.90;;;;;;5058296;28;20094;-79
2022/03/15 00:36:48;;;;;;;6.68;3.33;;;7.00;87.00;;;;;;5040079;28;20041;-79
2022/03/15 00:39:16;;;;;;;5.88;3.38;;;7.00;87.00;;;;;;5008718;28;20532;-79
2022/03/15 00:41:47;;;;;;;5.57;3.13;;;7.00;87.00;;;;;;5039438;28;20049;-80
2022/03/15 00:44:16;;;;;;;5.35;3.10;;;7.00;87.00;;;;;;5040731;28;20083;-79
2022/03/15 00:46:44;;;;;;;4.20;2.30;;;6.90;87.00;;;;;;5040648;28;20566;-79
2022/03/15 00:49:11;;;;;;;6.22;3.42;;;6.90;87.00;;;;;;5056830;28;20366;-80
2022/03/15 00:51:38;;;;;;;6.15;3.05;;;6.90;87.00;;;;;;5039704;28;20043;-80
2022/03/15 00:54:05;;;;;;;6.72;3.05;;;6.90;87.00;;;;;;5039871;28;20048;-80
2022/03/15 00:56:33;;;;;;;5.38;2.70;;;6.90;87.60;;;;;;5056353;28;20090;-80
2022/03/15 00:59:01;;;;;;;6.03;2.60;;;6.90;87.00;;;;;;5039811;28;20040;-79
2022/03/15 01:01:29;;;;;;;6.75;3.13;;;6.90;87.00;;;;;;5039129;28;20583;-79
2022/03/15 01:03:56;;;;;;;5.82;2.72;;;6.90;87.10;;;;;;5039862;28;20052;-80
2022/03/15 01:06:25;;;;;;;5.68;3.15;;;6.90;87.10;;;;;;5023475;28;20044;-79
2022/03/15 01:08:52;;;;;;;6.38;3.03;;;6.90;87.20;;;;;;5006759;28;20048;-80
2022/03/15 01:11:19;;;;;;;5.38;2.72;;;6.90;87.20;;;;;;5039558;28;20443;-79
2022/03/15 01:13:47;;;;;;;7.88;3.33;;;6.90;87.20;;;;;;5039664;28;20404;-79
2022/03/15 01:16:14;;;;;;;5.25;2.88;;;6.80;87.20;;;;;;5023160;28;20045;-79
2022/03/15 01:18:41;;;;;;;5.70;3.10;;;6.80;87.30;;;;;;5040018;28;20040;-79
2022/03/15 01:21:15;;;;;;;5.50;2.75;;;6.80;87.30;;;;;;5057660;28;20048;-79
2022/03/15 01:23:45;;;;;;;8.00;3.65;;;6.80;87.30;;;;;;5044807;28;20057;-78
2022/03/15 01:26:13;;;;;;;5.38;2.42;;;6.80;87.40;;;;;;5026213;28;20056;-80
2022/03/15 01:28:41;;;;;;;5.13;2.92;;;6.80;87.40;;;;;;5055624;28;20044;-78
2022/03/15 01:31:11;;;;;;;7.20;3.17;;;6.80;87.40;;;;;;5039215;28;20110;-79
2022/03/15 01:33:39;;;;;;;6.22;3.15;;;6.80;87.40;;;;;;5022861;28;20075;-79
2022/03/15 01:36:06;;;;;;;5.43;2.67;;;6.80;87.40;;;;;;5038503;28;20049;-79
2022/03/15 01:38:36;;;;;;;6.35;3.40;;;6.80;87.40;;;;;;5040191;28;20040;-79
2022/03/15 01:41:03;;;;;;;6.40;2.97;;;6.80;87.40;;;;;;5038465;28;20048;-79
2022/03/15 01:43:31;;;;;;;5.07;2.53;;;6.80;87.50;;;;;;5022332;28;20040;-80
2022/03/15 01:45:59;;;;;;;7.18;3.05;;;6.80;87.50;;;;;;5038360;28;20131;-79
2022/03/15 01:48:26;;;;;;;5.20;2.83;;;6.80;87.80;;;;;;5021931;28;20040;-79
2022/03/15 01:50:53;;;;;;;6.25;3.08;;;6.80;87.50;;;;;;5021699;28;20052;-80
2022/03/15 01:53:23;;;;;;;3.85;2.28;;;6.80;87.50;;;;;;5038464;28;20063;-80
2022/03/15 01:55:50;;;;;;;4.80;2.53;;;6.90;87.40;;;;;;5038102;28;20045;-79
2022/03/15 01:58:18;;;;;;;5.35;2.60;;;6.90;87.30;;;;;;5054504;28;20051;-79
2022/03/15 02:00:45;;;;;;;5.15;2.38;;;6.90;87.30;;;;;;5038179;28;20083;-79
2022/03/15 02:03:14;;;;;;;6.05;2.65;;;6.90;87.30;;;;;;5037714;28;20056;-78
2022/03/15 02:05:41;;;;;;;5.32;2.05;;;6.90;87.30;;;;;;5038088;28;20055;-80
2022/03/15 02:08:14;;;;;;;4.50;1.88;;;6.90;87.30;;;;;;5038064;28;20196;-79
2022/03/15 02:10:42;;;;;;;4.50;2.45;;;6.90;87.40;;;;;;5073039;28;20426;-79
2022/03/15 02:13:12;;;;;;;5.88;2.92;;;6.90;87.40;;;;;;5038647;28;20040;-78
2022/03/15 02:15:39;;;;;;;5.28;2.40;;;6.90;87.40;;;;;;5054217;28;20040;-79
2022/03/15 02:18:10;;;;;;;5.60;2.53;;;6.90;87.60;;;;;;5038388;28;20131;-80
2022/03/15 02:20:37;;;;;;;5.45;2.97;;;7.00;87.70;;;;;;5038708;28;20128;-80
2022/03/15 02:23:04;;;;;;;4.38;2.03;;;7.00;87.70;;;;;;5037893;28;20048;-79
2022/03/15 02:25:31;;;;;;;4.72;2.53;;;7.00;87.70;;;;;;5038227;28;20463;-79
2022/03/15 02:28:06;;;;;;;5.35;1.98;;;7.00;87.70;;;;;;5053981;28;20408;-79
2022/03/15 02:30:34;;;;;;;3.95;1.75;;;7.00;88.30;;;;;;5038147;28;20045;-78
2022/03/15 02:33:01;;;;;;;4.13;2.13;;;7.00;87.70;;;;;;5057727;28;20042;-80
2022/03/15 02:35:28;;;;;;;3.58;1.95;;;7.00;88.30;;;;;;5041036;28;20048;-79
2022/03/15 02:37:56;;;;;;;5.25;2.72;;;7.10;87.70;;;;;;5057751;28;20043;-80
2022/03/15 02:40:26;;;;;;;4.60;2.22;;;7.10;87.70;;;;;;5074140;28;20048;-80
2022/03/15 02:42:54;;;;;;;4.30;2.17;;;7.10;87.70;;;;;;5048637;28;20048;-79
2022/03/15 02:45:22;;;;;;;4.40;2.20;;;7.10;87.80;;;;;;5041099;28;20400;-79
2022/03/15 02:47:49;;;;;;;4.50;2.10;;;7.00;87.70;;;;;;5058047;28;20056;-79
2022/03/15 02:50:16;;;;;;;5.55;2.67;;;7.10;87.80;;;;;;5091981;28;20040;-79
2022/03/15 02:52:46;;;;;;;5.82;2.38;;;7.10;87.90;;;;;;5074868;28;20434;-79
2022/03/15 02:55:16;;;;;;;5.97;2.60;;;7.00;87.90;;;;;;5092396;28;20033;-79
2022/03/15 02:57:47;;;;;;;5.15;2.60;;;7.00;87.90;;;;;;5058202;28;20048;-79
2022/03/15 03:00:17;;;;;;;6.38;2.55;;;7.00;87.90;;;;;;5092419;28;20044;-78
2022/03/15 03:02:44;;;;;;;4.45;2.35;;;7.00;88.00;;;;;;5058060;28;20135;-79
2022/03/15 03:05:12;;;;;;;5.28;2.53;;;7.00;88.00;;;;;;5074165;28;20044;-80
2022/03/15 03:07:40;;;;;;;3.97;2.30;;;7.10;88.00;;;;;;5057759;28;20044;-79
2022/03/15 03:10:12;;;;;;;4.78;2.90;;;7.00;88.00;;;;;;5058203;28;20051;-78
2022/03/15 03:12:41;;;;;;;6.13;2.33;;;7.00;88.00;;;;;;5057571;28;20052;-79
2022/03/15 03:15:12;;;;;;;7.32;2.95;;;7.00;88.00;;;;;;5057662;28;20040;-80
2022/03/15 03:17:42;;;;;;;5.40;3.08;;;7.00;88.10;;;;;;5059264;28;20051;-80
2022/03/15 03:20:12;;;;;;;4.65;2.38;;;7.00;88.10;;;;;;5092986;28;20452;-80
2022/03/15 03:22:41;;;;;;;4.57;2.00;;;7.00;88.20;;;;;;5073391;28;20053;-79
2022/03/15 03:25:09;;;;;;;6.13;2.70;;;7.00;88.20;;;;;;5071451;28;20092;-80
2022/03/15 03:27:36;;;;;;;5.03;2.65;;;7.00;88.20;;;;;;5072740;28;20055;-80
2022/03/15 03:30:07;;;;;;;4.70;2.45;;;7.00;88.30;;;;;;5054376;28;20044;-79
2022/03/15 03:32:34;;;;;;;5.47;2.45;;;7.00;88.30;;;;;;5054458;28;20436;-80
2022/03/15 03:35:04;;;;;;;6.35;2.85;;;7.00;88.30;;;;;;5070694;28;20048;-79
2022/03/15 03:37:32;;;;;;;6.68;2.70;;;7.00;88.30;;;;;;5071886;28;20203;-79
2022/03/15 03:40:06;;;;;;;5.72;2.75;;;7.00;88.40;;;;;;5070635;28;20456;-78
2022/03/15 03:42:37;;;;;;;5.20;2.83;;;7.00;88.40;;;;;;5070417;28;20131;-79
2022/03/15 03:45:05;;;;;;;6.70;3.47;;;7.00;88.40;;;;;;5054841;28;20044;-78
2022/03/15 03:47:32;;;;;;;4.55;2.33;;;7.00;88.50;;;;;;5057334;28;20048;-78
2022/03/15 03:49:59;;;;;;;5.40;2.60;;;7.00;88.50;;;;;;5057246;28;20044;-80
2022/03/15 03:52:28;;;;;;;5.57;2.70;;;6.90;88.50;;;;;;5057850;28;20057;-79
2022/03/15 03:54:55;;;;;;;6.05;2.72;;;7.00;88.50;;;;;;5057441;28;20445;-79
2022/03/15 03:57:28;;;;;;;5.63;2.63;;;6.90;88.50;;;;;;5058074;28;20032;-80
2022/03/15 03:59:56;;;;;;;4.68;2.53;;;7.00;88.50;;;;;;5057745;28;20106;-80
2022/03/15 04:02:25;;;;;;;5.80;2.83;;;7.00;88.60;;;;;;5041629;28;20060;-79
2022/03/15 04:04:54;;;;;;;6.95;3.38;;;7.00;88.60;;;;;;5058331;28;20070;-79
2022/03/15 04:07:24;;;;;;;6.03;2.47;;;7.00;88.60;;;;;;5056993;28;20041;-79
2022/03/15 04:09:51;;;;;;;5.82;3.78;;;6.90;88.60;;;;;;5073827;28;20029;-79
2022/03/15 04:12:21;;;;;;;5.20;2.60;;;7.00;88.60;;;;;;5057178;28;20110;-79
2022/03/15 04:14:50;;;;;;;5.72;2.83;;;6.90;88.50;;;;;;5073604;28;20055;-79
2022/03/15 04:17:17;;;;;;;5.22;2.50;;;6.90;88.50;;;;;;5040694;28;20139;-80
2022/03/15 04:19:47;;;;;;;5.50;2.65;;;7.00;88.60;;;;;;5073399;28;20106;-79
2022/03/15 04:22:16;;;;;;;5.13;2.50;;;7.00;88.60;;;;;;5059948;28;20056;-80
2022/03/15 04:24:45;;;;;;;6.32;3.38;;;7.00;88.60;;;;;;5060626;28;20102;-80
2022/03/15 04:27:13;;;;;;;5.97;2.97;;;7.00;88.70;;;;;;5076540;28;20075;-80
2022/03/15 04:29:40;;;;;;;6.72;3.40;;;7.00;88.70;;;;;;5059974;28;20044;-79
2022/03/15 04:32:07;;;;;;;6.95;3.80;;;7.00;88.70;;;;;;5094892;28;20059;-80
2022/03/15 04:34:39;;;;;;;5.95;2.40;;;7.00;88.70;;;;;;5076653;28;20446;-80
2022/03/15 04:37:12;;;;;;;5.93;2.83;;;7.00;88.70;;;;;;5076673;28;20381;-79
2022/03/15 04:39:39;;;;;;;7.13;2.75;;;7.00;88.70;;;;;;5059883;28;20048;-79
2022/03/15 04:42:07;;;;;;;5.88;3.00;;;7.00;88.60;;;;;;5076232;28;20051;-80
2022/03/15 04:44:34;;;;;;;6.03;3.50;;;7.00;88.60;;;;;;5060212;28;20407;-77
2022/03/15 04:47:02;;;;;;;4.70;2.20;;;7.00;88.60;;;;;;5094422;28;20051;-80
2022/03/15 04:49:29;;;;;;;5.75;2.92;;;7.00;88.70;;;;;;5060089;28;20488;-79
2022/03/15 04:51:57;;;;;;;6.63;3.00;;;7.00;89.30;;;;;;5076238;28;20052;-79
2022/03/15 04:54:24;;;;;;;5.60;2.80;;;7.00;88.70;;;;;;5059501;28;20073;-79
2022/03/15 04:56:51;;;;;;;4.75;2.53;;;7.00;88.80;;;;;;5058978;28;20042;-79
2022/03/15 04:59:19;;;;;;;6.53;2.78;;;7.00;88.80;;;;;;5059546;28;20043;-79
2022/03/15 05:01:51;;;;;;;5.72;3.03;;;7.00;88.80;;;;;;5076361;28;20079;-79
2022/03/15 05:04:19;;;;;;;5.35;2.63;;;7.00;88.80;;;;;;5075645;28;20048;-80
2022/03/15 05:06:46;;;;;;;6.03;2.95;;;7.00;88.80;;;;;;5059245;28;20076;-80
2022/03/15 05:09:13;;;;;;;5.13;2.70;;;7.10;88.80;;;;;;5059078;28;20051;-80
2022/03/15 05:11:45;;;;;;;6.15;3.20;;;7.00;88.80;;;;;;5075672;28;20050;-80
2022/03/15 05:14:14;;;;;;;6.28;3.08;;;7.00;88.80;;;;;;5061303;28;20811;-79
2022/03/15 05:16:42;;;;;;;6.22;2.83;;;7.00;88.90;;;;;;5042931;28;20076;-80
2022/03/15 05:19:11;;;;;;;5.75;2.97;;;7.00;88.90;;;;;;5094089;28;20044;-79
2022/03/15 05:21:38;;;;;;;7.05;3.58;;;7.00;88.90;;;;;;5059385;28;20048;-80
2022/03/15 05:24:05;;;;;;;6.10;2.97;;;7.00;88.90;;;;;;5075662;28;20067;-80
2022/03/15 05:26:33;;;;;;;5.97;3.22;;;7.00;89.00;;;;;;5076903;28;20085;-80
2022/03/15 05:29:00;;;;;;;5.45;2.97;;;7.00;89.00;;;;;;5079496;28;20115;-79
2022/03/15 05:31:31;;;;;;;6.13;3.05;;;7.00;89.00;;;;;;5081942;28;20050;-79
2022/03/15 05:33:58;;;;;;;6.32;3.72;;;7.00;89.10;;;;;;5061130;28;20048;-79
2022/03/15 05:36:25;;;;;;;4.32;2.30;;;7.00;89.00;;;;;;5042785;28;20147;-79
2022/03/15 05:38:55;;;;;;;5.28;2.80;;;7.00;89.00;;;;;;5059314;28;20032;-80
2022/03/15 05:41:22;;;;;;;4.75;2.30;;;7.10;89.10;;;;;;5058861;28;20051;-79
2022/03/15 05:43:56;;;;;;;4.95;2.97;;;7.00;88.90;;;;;;5076738;28;20036;-79
2022/03/15 05:46:24;;;;;;;5.07;2.72;;;7.10;88.90;;;;;;5058582;28;20036;-79
2022/03/15 05:48:52;;;;;;;5.32;3.00;;;7.10;88.90;;;;;;5058441;28;20395;-79
2022/03/15 05:51:19;;;;;;;5.78;2.63;;;7.10;88.90;;;;;;5075410;28;20139;-78
2022/03/15 05:53:47;;;;;;;4.50;2.38;;;7.10;88.90;;;;;;5058891;28;20048;-79
2022/03/15 05:56:17;;;;;;;6.47;2.95;;;7.10;88.90;;;;;;5059751;28;20554;-78
2022/03/15 05:58:46;;;;;;;5.45;2.50;;;7.10;89.00;;;;;;5058128;28;20044;-78
2022/03/15 06:01:13;;;;;;;5.32;3.10;;;7.10;89.00;;;;;;5075112;28;20070;-80
2022/03/15 06:03:40;;;;;;;5.15;2.55;;;7.10;88.90;;;;;;5058854;28;20101;-79
2022/03/15 06:06:07;;;;;;;6.70;3.17;;;7.10;88.90;;;;;;5075025;28;20040;-79
2022/03/15 06:08:34;;;;;;;5.00;2.63;;;7.10;88.90;;;;;;5057441;28;20044;-79
2022/03/15 06:11:03;;;;;;;5.68;2.95;;;7.20;89.00;;;;;;5092751;28;20492;-79
2022/03/15 06:13:30;;;;;;;6.53;3.30;;;7.20;89.00;;;;;;5058663;28;20044;-79
2022/03/15 06:15:57;;;;;;;5.05;2.90;;;7.20;89.00;;;;;;5075170;28;20143;-79
2022/03/15 06:18:24;;;;;;;4.95;2.42;;;7.20;88.90;;;;;;5075437;28;20036;-79
2022/03/15 06:20:51;;;;;;;5.55;3.08;;;7.20;88.90;;;;;;5075552;28;20062;-79
2022/03/15 06:23:21;;;;;;;5.05;2.78;;;7.30;88.90;;;;;;5071516;28;20482;-80
2022/03/15 06:25:51;;;;;;;5.07;2.95;;;7.30;88.80;;;;;;5071884;28;20063;-79
2022/03/15 06:28:21;;;;;;;6.03;2.75;;;7.30;88.80;;;;;;5038488;28;20067;-80
2022/03/15 06:30:51;;;;;;;5.63;3.15;;;7.30;88.80;;;;;;5054929;28;20420;-79
2022/03/15 06:33:24;;;;;;;5.38;2.83;;;7.40;88.80;;;;;;5071229;28;20049;-79
2022/03/15 06:35:55;;;;;;;7.57;2.88;;;7.40;88.80;;;;;;5055397;28;20038;-78
2022/03/15 06:38:24;;;;;;;4.95;2.75;;;7.40;88.70;;;;;;5038278;28;20045;-78
2022/03/15 06:40:52;;;;;;;4.90;2.95;;;7.40;88.70;;;;;;5071313;28;20052;-78
2022/03/15 06:43:19;;;;;;;5.05;2.65;;;7.40;88.60;;;;;;5055099;28;20044;-80
2022/03/15 06:45:53;;;;;;;6.00;3.05;;;7.40;88.60;;;;;;5056241;28;20040;-80
2022/03/15 06:48:20;;;;;;;4.72;2.42;;;7.50;88.60;;;;;;5055091;28;20048;-80
2022/03/15 06:50:56;;;;;;;4.65;2.53;;;7.50;88.50;;;;;;5040025;28;20044;-80
2022/03/15 06:53:25;;;;;;;4.25;2.67;;;7.50;88.50;;;;;;5054926;28;20087;-80
2022/03/15 06:55:53;;;;;;;6.63;3.63;;;7.50;88.50;;;;;;5072537;28;20051;-81
2022/03/15 06:58:20;;;;;;;5.82;2.55;;;7.60;88.50;;;;;;5071127;28;20045;-79
2022/03/15 07:00:50;;;;;;;4.45;2.55;;;7.60;88.50;;;;;;5071119;28;20048;-79
2022/03/15 07:03:17;;;;;;;5.80;2.80;;;7.60;88.50;;;;;;5071029;28;20048;-82
2022/03/15 07:05:53;;;;;;;4.57;2.47;;;7.60;88.30;;;;;;5055678;28;20048;-81
2022/03/15 07:08:20;;;;;;;5.97;2.70;;;7.70;88.90;;;;;;5054465;28;20049;-81
2022/03/15 07:10:47;;;;;;;4.82;2.92;;;7.70;88.20;;;;;;5054801;28;20063;-81
2022/03/15 07:13:14;;;;;;;5.45;3.47;;;7.70;88.10;;;;;;5054239;28;20045;-80
2022/03/15 07:15:41;;;;;;;4.68;2.75;;;7.80;88.20;;;;;;5072591;28;20114;-82
2022/03/15 07:18:11;;;;;;;5.30;2.63;;;7.80;88.10;;;;;;5054885;28;20140;-80
2022/03/15 07:20:38;;;;;;;4.88;2.88;;;7.80;88.10;;;;;;5056810;28;20114;-83
2022/03/15 07:23:06;;;;;;;5.90;3.22;;;7.80;88.00;;;;;;5058700;28;20093;-81
2022/03/15 07:25:33;;;;;;;5.30;2.90;;;7.90;88.00;;;;;;5058438;28;20052;-80
2022/03/15 07:28:00;;;;;;;5.00;3.08;;;7.90;88.00;;;;;;5054216;28;20143;-84
2022/03/15 07:30:28;;;;;;;6.38;3.53;;;7.90;87.90;;;;;;5039792;28;20037;-83
2022/03/15 07:32:55;;;;;;;5.63;2.80;;;7.90;87.90;;;;;;5027023;28;20072;-80
2022/03/15 07:35:24;;;;;;;5.68;3.08;;;8.00;87.90;;;;;;5025734;28;20037;-80
2022/03/15 07:37:54;;;;;;;6.10;3.08;;;8.00;87.80;;;;;;5040869;28;20048;-84
2022/03/15 07:40:23;;;;;;;5.97;2.40;;;8.00;87.80;;;;;;5055202;28;20053;-84
2022/03/15 07:42:52;;;;;;;5.93;2.97;;;8.10;87.70;;;;;;5055005;28;20469;-85
2022/03/15 07:45:20;;;;;;;6.95;3.20;;;8.10;87.70;;;;;;5055549;28;20457;-85
2022/03/15 07:47:48;;;;;;;4.97;2.40;;;8.20;87.70;;;;;;5055281;28;20094;-88
2022/03/15 07:50:17;;;;;;;4.43;2.92;;;8.10;87.60;;;;;;5070239;28;20041;-87
2022/03/15 07:52:47;;;;;;;5.82;3.55;;;8.20;87.60;;;;;;5056298;28;20539;-86
2022/03/15 07:55:15;;;;;;;4.85;2.67;;;8.20;87.50;;;;;;5033984;28;20433;-87
2022/03/15 07:57:45;;;;;;;3.97;2.40;;;8.30;87.50;;;;;;5001504;28;20049;-86
2022/03/15 08:00:26;;;;;;;3.67;2.33;;;8.30;87.30;;;;;;5001129;28;20497;-86
2022/03/15 08:02:54;;;;;;;5.40;3.03;;;8.30;87.20;;;;;;5000892;28;20151;-84
2022/03/15 08:05:22;;;;;;;4.68;2.47;;;8.40;87.20;;;;;;5033414;28;20053;-83
2022/03/15 08:07:50;;;;;;;4.28;2.35;;;8.40;87.10;;;;;;5016510;28;20049;-84
2022/03/15 08:10:17;;;;;;;3.17;2.03;;;8.40;87.10;;;;;;5000476;28;20517;-83
2022/03/15 08:12:46;;;;;;;4.45;2.28;;;8.50;87.10;;;;;;5032755;28;20041;-83
2022/03/15 08:15:13;;;;;;;3.72;2.58;;;8.50;87.00;;;;;;5001787;28;20414;-82
2022/03/15 08:17:46;;;;;;;4.53;2.40;;;8.50;86.90;;;;;;5032874;28;20092;-83
2022/03/15 08:20:19;;;;;;;4.07;1.95;;;8.60;86.90;;;;;;4999280;28;20480;-83
2022/03/15 08:22:47;;;;;;;4.68;2.42;;;8.70;86.80;;;;;;4985498;28;20132;-83
2022/03/15 08:25:14;;;;;;;5.03;2.50;;;8.70;86.80;;;;;;5018458;28;20056;-82
2022/03/15 08:27:42;;;;;;;3.63;1.80;;;8.70;86.60;;;;;;5053791;28;20045;-82
2022/03/15 08:30:10;;;;;;;4.35;2.13;;;8.70;86.60;;;;;;5053596;28;20059;-82
2022/03/15 08:32:37;;;;;;;4.10;2.22;;;8.80;86.60;;;;;;5053277;28;20132;-83
2022/03/15 08:35:04;;;;;;;3.90;1.73;;;8.80;86.50;;;;;;5020627;28;20045;-84
2022/03/15 08:37:31;;;;;;;3.92;1.77;;;8.80;86.40;;;;;;5053917;28;20366;-83
2022/03/15 08:40:03;;;;;;;4.43;2.33;;;8.90;86.40;;;;;;5053736;28;20073;-82
2022/03/15 08:42:30;;;;;;;4.10;2.10;;;8.90;86.20;;;;;;5037590;28;20444;-82
2022/03/15 08:44:57;;;;;;;2.90;1.70;;;9.00;86.20;;;;;;5037411;28;20080;-83
2022/03/15 08:47:24;;;;;;;3.38;1.77;;;9.00;86.10;;;;;;5037805;28;20052;-79
2022/03/15 08:49:52;;;;;;;3.50;1.40;;;9.00;86.00;;;;;;5053603;28;20098;-84
2022/03/15 08:52:19;;;;;;;4.03;1.65;;;9.10;85.90;;;;;;5036849;28;20497;-78
2022/03/15 08:54:46;;;;;;;3.50;1.70;;;9.10;85.80;;;;;;5053228;28;20135;-79
2022/03/15 08:57:14;;;;;;;3.30;1.52;;;9.20;85.60;;;;;;5036502;28;20501;-79
2022/03/15 08:59:42;;;;;;;4.30;1.90;;;9.30;85.60;;;;;;5036459;28;20056;-78
2022/03/15 09:02:16;;;;;;;3.50;1.77;;;9.30;85.60;;;;;;5069517;28;20052;-83
2022/03/15 09:04:46;;;;;;;3.53;1.70;;;9.30;85.40;;;;;;5036450;28;20037;-82
2022/03/15 09:07:15;;;;;;;2.90;1.60;;;9.40;85.40;;;;;;5052746;28;20043;-80
2022/03/15 09:09:42;;;;;;;3.00;1.50;;;9.40;85.30;;;;;;5052755;28;20045;-81
2022/03/15 09:12:09;;;;;;;3.45;1.73;;;9.50;85.20;;;;;;5052800;28;20057;-80
2022/03/15 09:14:39;;;;;;;3.08;1.65;;;9.50;85.10;;;;;;5053314;28;20151;-79
2022/03/15 09:17:06;;;;;;;3.65;1.63;;;9.60;85.00;;;;;;5052650;28;20489;-79
2022/03/15 09:19:40;;;;;;;4.63;1.95;;;9.60;84.90;;;;;;5053009;28;20040;-81
2022/03/15 09:22:08;;;;;;;2.97;1.55;;;9.60;84.80;;;;;;5036603;28;20147;-82
2022/03/15 09:24:38;;;;;;;3.67;1.75;;;9.70;84.80;;;;;;5019827;28;20060;-83
2022/03/15 09:27:05;;;;;;;3.75;1.98;;;9.70;84.60;;;;;;5038225;28;20049;-82
2022/03/15 09:29:36;;;;;;;3.70;1.60;;;9.80;84.50;;;;;;5047144;28;20040;-79
2022/03/15 09:32:05;;;;;;;2.97;1.33;;;9.80;84.40;;;;;;5019572;28;20051;-80
2022/03/15 09:34:32;;;;;;;2.97;1.85;;;9.90;84.40;;;;;;5052425;28;20048;-78
2022/03/15 09:36:59;;;;;;;4.25;2.35;;;9.90;84.30;;;;;;5035954;28;20045;-79
2022/03/15 09:39:26;;;;;;;3.55;1.50;;;10.00;84.20;;;;;;5035938;28;20038;-80
2022/03/15 09:41:58;;;;;;;5.47;1.70;;;10.00;84.10;;;;;;5035763;28;20049;-80
2022/03/15 09:44:30;;;;;;;3.67;1.88;;;10.10;84.00;;;;;;5052304;28;20045;-78
2022/03/15 09:47:02;;;;;;;3.05;1.70;;;10.10;83.80;;;;;;5036560;28;20041;-79
2022/03/15 09:49:37;;;;;;;3.45;1.90;;;10.10;83.80;;;;;;5069031;28;20049;-80
2022/03/15 09:52:07;;;;;;;3.83;2.00;;;10.10;83.60;;;;;;5036612;28;20071;-80
2022/03/15 09:54:36;;;;;;;4.50;1.98;;;10.10;83.60;;;;;;5070390;28;20139;-80
2022/03/15 09:57:04;;;;;;;3.70;2.00;;;10.20;83.50;;;;;;5036773;28;20040;-79
2022/03/15 09:59:32;;;;;;;3.65;1.35;;;10.20;83.40;;;;;;5053249;28;20040;-81
2022/03/15 10:01:59;;;;;;;3.33;1.65;;;10.30;83.40;;;;;;5070236;28;20051;-83
2022/03/15 10:04:28;;;;;;;4.65;1.60;;;10.30;83.30;;;;;;5054952;28;20037;-81
2022/03/15 10:06:56;;;;;;;3.08;1.48;;;10.40;83.20;;;;;;5054879;28;20044;-82
2022/03/15 10:09:26;;;;;;;3.20;1.40;;;10.40;83.20;;;;;;5054741;28;20469;-82
2022/03/15 10:11:55;;;;;;;3.92;2.03;;;10.40;83.10;;;;;;5070553;28;20115;-82
2022/03/15 10:14:23;;;;;;;2.53;1.40;;;10.40;83.00;;;;;;5044333;28;20496;-82
2022/03/15 10:16:50;;;;;;;3.72;1.58;;;10.50;83.00;;;;;;5021475;28;20055;-81
2022/03/15 10:19:18;;;;;;;3.42;1.52;;;10.50;82.90;;;;;;5063433;28;20361;-82
2022/03/15 10:21:56;;;;;;;3.95;1.92;;;10.50;82.90;;;;;;5034926;28;20239;-80
2022/03/15 10:24:27;;;;;;;3.58;1.55;;;10.60;82.70;;;;;;5057651;28;20511;-77
2022/03/15 10:26:56;;;;;;;4.00;1.42;;;10.60;82.70;;;;;;5071011;28;20037;-80
2022/03/15 10:29:27;;;;;;;2.83;1.50;;;10.70;82.70;;;;;;5054360;28;20450;-80
2022/03/15 10:31:57;;;;;;;3.08;1.70;;;10.70;82.50;;;;;;5057546;28;20041;-84
2022/03/15 10:34:27;;;;;;;2.63;1.67;;;10.70;82.50;;;;;;5056652;28;20029;-82
2022/03/15 10:36:56;;;;;;;2.78;1.30;;;10.80;82.40;;;;;;5045667;28;20040;-81
2022/03/15 10:39:26;;;;;;;2.60;1.38;;;10.80;82.30;;;;;;5061828;28;20041;-82
2022/03/15 10:41:59;;;;;;;3.05;1.35;;;10.80;82.10;;;;;;5060066;28;20060;-81
2022/03/15 10:44:33;;;;;;;3.00;1.70;;;10.80;82.00;;;;;;5065156;28;20044;-87
2022/03/15 10:47:15;;;;;;;4.07;1.50;;;10.90;82.00;;;;;;5063317;28;20110;-79
2022/03/15 10:49:56;;;;;;;3.40;1.35;;;10.90;81.90;;;;;;5058262;28;20045;-81
2022/03/15 10:52:32;;;;;;;3.17;1.48;;;11.00;81.80;;;;;;5043243;28;20029;-80
2022/03/15 10:55:14;;;;;;;3.72;1.65;;;11.00;81.80;;;;;;5063830;28;20071;-82
2022/03/15 10:57:50;;;;;;;4.73;1.70;;;11.10;81.70;;;;;;5055860;28;20049;-84
2022/03/15 11:00:23;;;;;;;5.78;1.50;;;11.10;81.70;;;;;;5055433;28;20202;-83
2022/03/15 11:02:53;;;;;;;2.70;1.20;;;11.10;81.60;;;;;;5060206;28;20044;-83
2022/03/15 11:05:33;;;;;;;3.67;1.70;;;11.10;81.60;;;;;;5033270;28;20132;-85
2022/03/15 11:08:09;;;;;;;3.38;1.42;;;11.20;81.60;;;;;;5056149;28;20041;-84
2022/03/15 11:10:38;;;;;;;3.70;1.60;;;11.20;81.50;;;;;;5044354;28;20509;-82
2022/03/15 11:13:11;;;;;;;3.65;1.50;;;11.20;81.50;;;;;;5054946;28;20119;-80
2022/03/15 11:15:55;;;;;;;4.30;1.67;;;11.20;81.40;;;;;;5053231;28;20040;-80
2022/03/15 11:18:28;;;;;;;5.30;1.58;;;11.20;81.40;;;;;;5075575;28;20081;-83
2022/03/15 11:20:56;;;;;;;;;;;11.30;81.50;;;;;;5075147;28;20116;-80
2022/03/15 11:23:25;;;;;;;2.42;1.15;;;11.30;81.50;;;;;;5075117;28;19925;-80
2022/03/15 11:26:06;;;;;;;3.10;1.50;;;11.30;81.40;;;;;;5059599;28;20087;-82
2022/03/15 11:28:36;;;;;;;1.88;1.00;;;11.40;81.30;;;;;;5075184;28;20059;-77
2022/03/15 11:31:04;;;;;;;2.45;1.02;;;11.40;81.30;;;;;;5074637;28;20043;-77
2022/03/15 11:33:32;;;;;;;2.30;1.10;;;11.50;81.20;;;;;;5074766;28;20055;-77
2022/03/15 11:36:04;;;;;;;3.35;1.45;;;11.50;81.10;;;;;;5057911;28;20048;-78
2022/03/15 11:38:33;;;;;;;3.58;1.55;;;11.50;81.10;;;;;;5075805;28;20067;-81
2022/03/15 11:41:00;;;;;;;4.53;1.70;;;11.60;81.10;;;;;;5058345;28;20044;-81
2022/03/15 11:43:50;;;;;;;4.97;2.75;;;11.60;81.00;;;;;;5058591;28;20055;-78
2022/03/15 11:46:37;;;;;;;4.43;1.85;;;11.60;81.00;;;;;;5074439;28;20509;-78
2022/03/15 11:49:23;;;;;;;5.55;2.10;;;11.60;81.00;;;;;;5057549;28;20052;-76
2022/03/15 11:52:01;;;;;;;3.80;1.80;;;11.60;80.90;;;;;;5074170;28;20063;-85
2022/03/15 11:54:49;;;;;;;5.18;2.42;;;11.70;80.80;;;;;;5073952;28;20032;-79
2022/03/15 11:57:38;;;;;;;4.25;1.85;;;11.70;80.60;;;;;;5072843;28;20070;-79
2022/03/15 12:00:07;;;;;;;4.10;1.92;;;11.70;80.60;;;;;;5074102;28;20495;-78
2022/03/15 12:02:40;;;;;;;;;;;11.70;80.60;;;;;;5058857;28;20045;-78
2022/03/15 12:05:20;;;;;;;3.95;1.80;;;11.70;80.60;;;;;;5057175;28;20359;-78
2022/03/15 12:08:12;;;;;;;3.22;1.75;;;11.80;80.50;;;;;;5073740;28;20036;-79
2022/03/15 12:10:50;;;;;;;4.25;2.10;;;11.80;80.10;;;;;;5057136;28;20150;-77
2022/03/15 12:13:43;;;;;;;3.38;1.52;;;11.90;80.00;;;;;;5074437;28;20402;-77
2022/03/15 12:16:18;;;;;;;3.72;1.23;;;11.90;79.80;;;;;;5073564;28;20040;-77
2022/03/15 12:19:06;;;;;;;4.47;1.38;;;11.90;79.70;;;;;;5073982;28;20116;-77
2022/03/15 12:21:51;;;;;;;3.33;1.20;;;12.00;79.60;;;;;;5057183;28;20462;-78
2022/03/15 12:24:39;;;;;;;;;;;12.00;79.40;;;;;;5087177;28;20052;-79
2022/03/15 12:27:19;;;;;;;5.15;0.93;;;12.00;79.60;;;;;;5060830;28;19959;-78
2022/03/15 12:29:58;;;;;;;4.03;1.10;;;12.00;79.60;;;;;;5060415;28;20045;-79
2022/03/15 12:32:26;;;;;;;1.60;0.70;;;12.00;79.40;;;;;;5060014;28;20063;-80
2022/03/15 12:34:57;;;;;;;4.78;1.00;;;12.00;79.40;;;;;;5059996;28;20044;-77
2022/03/15 12:37:37;;;;;;;2.60;0.90;;;12.00;79.20;;;;;;5076559;28;20040;-77
2022/03/15 12:40:07;;;;;;;2.95;1.10;;;12.00;79.00;;;;;;5094303;28;20115;-77
2022/03/15 12:42:35;;;;;;;3.22;1.17;;;12.00;79.00;;;;;;5094133;28;20056;-78
2022/03/15 12:45:10;;;;;;;2.67;1.02;;;11.90;78.90;;;;;;5094194;28;20044;-78
2022/03/15 12:47:48;;;;;;;2.50;1.17;;;11.90;78.90;;;;;;5059483;28;20036;-78
2022/03/15 12:50:16;;;;;;;3.72;1.35;;;11.90;78.90;;;;;;5060550;28;20036;-80
2022/03/15 12:52:58;;;;;;;2.78;1.20;;;11.80;79.00;;;;;;5075972;28;20048;-80
2022/03/15 12:55:42;;;;;;;2.15;0.90;;;11.80;78.90;;;;;;5059614;28;20098;-78
2022/03/15 12:58:21;;;;;;;3.33;1.00;;;11.90;78.90;;;;;;5044419;28;20051;-79
2022/03/15 13:00:52;;;;;;;3.50;1.02;;;12.00;78.60;;;;;;5074963;28;20557;-78
2022/03/15 13:03:20;;;;;;;2.75;0.80;;;12.10;78.40;;;;;;5075206;28;20047;-79
2022/03/15 13:05:47;;;;;;;2.58;1.10;;;12.30;78.00;;;;;;5076699;28;20039;-78
2022/03/15 13:08:15;;;;;;;2.83;0.98;;;12.50;77.70;;;;;;5075104;28;20036;-79
2022/03/15 13:10:48;;;;;;;3.38;1.23;;;12.60;77.40;;;;;;5075601;28;20458;-79